Time;durP1;ratioP1;P1;durP2;ratioP2;P2;SDS_P1;SDS_P2;PMS_P1;PMS_P2;Temp;Humidity;BMP_temperature;BMP_pressure;BME280_temperature;BME280_humidity;BME280_pressure;Samples;Min_cycle;Max_cycle;Signal;HPM_P1;HPM_P2
2023/12/19 00:01:28;;;;;;;;;;;;;;;26.10;35.10;95524.97;5031756;28;7084;-60
2023/12/19 00:03:56;;;;;;;;;;;;;;;26.09;34.40;95526.22;5022704;28;9498;-59
2023/12/19 00:06:25;;;;;;;;;;;;;;;26.07;34.27;95515.66;5021047;28;7244;-60
2023/12/19 00:08:51;;;;;;;;;;;;;;;26.10;34.33;95522.97;5030216;28;8873;-60
2023/12/19 00:11:17;;;;;;;;;;;;;;;26.09;35.24;95526.97;5016968;28;7444;-60
2023/12/19 00:13:46;;;;;;;;;;;;;;;26.08;34.49;95519.94;5026367;28;7267;-60
2023/12/19 00:16:14;;;;;;;;;;;;;;;26.05;34.41;95511.88;5020323;28;6977;-60
2023/12/19 00:18:41;;;;;;;;;;;;;;;26.05;34.86;95504.34;5014058;28;7027;-60
2023/12/19 00:21:12;;;;;;;;;;;;;;;26.09;34.65;95493.13;5014570;28;7232;-60
2023/12/19 00:23:43;;;;;;;;;;;;;;;26.07;34.19;95482.56;5023168;28;7191;-60
2023/12/19 00:26:11;;;;;;;;;;;;;;;26.06;35.04;95486.56;5026851;28;6999;-59
2023/12/19 00:28:37;;;;;;;;;;;;;;;26.06;34.74;95478.28;5035189;28;7335;-60
2023/12/19 00:31:06;;;;;;;;;;;;;;;26.03;34.40;95475.75;5035495;28;9014;-60
2023/12/19 00:33:33;;;;;;;;;;;;;;;26.05;34.26;95465.00;5023519;28;9324;-60
2023/12/19 00:36:01;;;;;;;;;;;;;;;25.99;34.33;95456.66;5038053;28;9095;-60
2023/12/19 00:38:29;;;;;;;;;;;;;;;26.04;34.40;95458.72;5017388;28;7314;-60
2023/12/19 00:40:55;;;;;;;;;;;;;;;26.04;34.27;95447.69;5024812;28;7195;-60
2023/12/19 00:43:22;;;;;;;;;;;;;;;26.05;34.40;95449.22;5044724;28;6981;-60
2023/12/19 00:45:50;;;;;;;;;;;;;;;26.06;34.81;95445.19;5027845;28;7057;-60
2023/12/19 00:48:25;;;;;;;;;;;;;;;26.07;34.65;95437.69;5020983;28;7193;-60
2023/12/19 00:50:51;;;;;;;;;;;;;;;26.05;34.05;95438.19;5016682;28;7407;-60
2023/12/19 00:53:19;;;;;;;;;;;;;;;26.06;34.20;95438.91;5020222;28;8589;-60
2023/12/19 00:55:47;;;;;;;;;;;;;;;26.06;34.51;95430.66;5022412;28;7454;-61
2023/12/19 00:58:13;;;;;;;;;;;;;;;26.05;34.21;95438.19;5033228;28;9114;-61
2023/12/19 01:00:43;;;;;;;;;;;;;;;26.06;34.81;95433.41;5019544;28;6948;-61
2023/12/19 01:03:18;;;;;;;;;;;;;;;26.04;34.42;95431.16;5029654;28;7001;-61
2023/12/19 01:06:05;;;;;;;;;;;;;;;26.06;34.41;95431.41;5029213;28;7200;-62
2023/12/19 01:08:32;;;;;;;;;;;;;;;26.06;34.19;95438.91;5022010;28;9082;-61
2023/12/19 01:11:10;;;;;;;;;;;;;;;26.07;34.63;95435.69;5017042;28;9096;-61
2023/12/19 01:13:36;;;;;;;;;;;;;;;26.08;34.85;95436.44;5027023;28;7268;-62
2023/12/19 01:16:37;;;;;;;;;;;;;;;26.07;34.47;95445.97;5032011;28;7189;-62
2023/12/19 01:19:06;;;;;;;;;;;;;;;26.03;34.28;95443.41;5024149;28;7374;-62
2023/12/19 01:21:45;;;;;;;;;;;;;;;26.05;34.21;95446.47;5021165;28;8813;-62
2023/12/19 01:24:11;;;;;;;;;;;;;;;26.05;34.54;95448.44;5018684;28;7488;-61
2023/12/19 01:26:43;;;;;;;;;;;;;;;26.05;34.28;95465.00;5032397;28;9046;-61
2023/12/19 01:29:11;;;;;;;;;;;;;;;26.04;34.25;95471.75;5024783;28;7061;-61
2023/12/19 01:31:42;;;;;;;;;;;;;;;26.03;34.73;95473.00;5031988;28;9367;-61
2023/12/19 01:34:11;;;;;;;;;;;;;;;26.05;34.13;95482.31;5026280;28;7247;-61
2023/12/19 01:37:07;;;;;;;;;;;;;;;26.05;34.20;95476.03;5039150;28;9040;-61
2023/12/19 01:39:37;;;;;;;;;;;;;;;26.05;34.35;95485.06;4967021;28;8126;-61
2023/12/19 01:42:06;;;;;;;;;;;;;;;26.03;34.20;95479.25;4974916;28;9173;-61
2023/12/19 01:45:09;;;;;;;;;;;;;;;26.05;34.04;95484.28;4986585;28;7359;-61
2023/12/19 01:47:40;;;;;;;;;;;;;;;26.05;34.56;95487.06;4974271;28;10267;-61
2023/12/19 01:50:26;;;;;;;;;;;;;;;26.05;34.70;95481.53;4980884;28;9059;-61
2023/12/19 01:53:23;;;;;;;;;;;;;;;26.04;34.86;95463.47;4987868;28;7207;-61
2023/12/19 01:56:02;;;;;;;;;;;;;;;26.04;34.81;95460.72;4986074;28;7549;-61
2023/12/19 01:59:01;;;;;;;;;;;;;;;26.04;34.21;95458.72;4982453;28;9087;-61
2023/12/19 02:01:43;;;;;;;;;;;;;;;26.05;34.12;95454.72;4994465;28;9244;-61
2023/12/19 02:04:12;;;;;;;;;;;;;;;26.03;34.85;95453.69;4989672;28;8494;-61
2023/12/19 02:06:39;;;;;;;;;;;;;;;26.01;34.05;95442.41;4970315;28;7069;-59
2023/12/19 02:09:05;;;;;;;;;;;;;;;25.99;34.63;95450.41;4973282;28;9476;-59
2023/12/19 02:12:01;;;;;;;;;;;;;;;25.98;34.07;95448.88;4972113;28;8150;-59
2023/12/19 02:14:32;;;;;;;;;;;;;;;25.95;34.81;95434.06;4932385;29;7196;-60
2023/12/19 02:17:11;;;;;;;;;;;;;;;25.92;34.81;95428.78;4963053;28;7014;-60
2023/12/19 02:20:08;;;;;;;;;;;;;;;25.96;34.30;95430.09;4941143;28;8765;-60
2023/12/19 02:22:55;;;;;;;;;;;;;;;25.95;34.09;95417.53;4961129;28;7318;-60
2023/12/19 02:25:21;;;;;;;;;;;;;;;25.94;34.81;95413.28;4962700;28;7187;-60
2023/12/19 02:28:10;;;;;;;;;;;;;;;25.92;35.10;95406.75;4952395;28;8180;-60
2023/12/19 02:30:38;;;;;;;;;;;;;;;25.90;34.94;95404.44;4964917;28;9508;-59
2023/12/19 02:33:16;;;;;;;;;;;;;;;25.94;34.46;95398.75;4945383;28;7323;-61
2023/12/19 02:35:53;;;;;;;;;;;;;;;25.94;34.88;95394.00;4970853;28;9048;-60
2023/12/19 02:38:19;;;;;;;;;;;;;;;25.95;34.71;95389.97;4963145;28;9517;-60
2023/12/19 02:41:02;;;;;;;;;;;;;;;25.91;34.81;95397.72;4955150;28;7381;-59
2023/12/19 02:44:03;;;;;;;;;;;;;;;25.94;34.40;95393.22;4947656;28;9441;-59
2023/12/19 02:46:29;;;;;;;;;;;;;;;25.89;34.18;95394.69;4901696;29;9527;-60
2023/12/19 02:49:07;;;;;;;;;;;;;;;25.91;34.73;95405.22;4909259;29;7421;-60
2023/12/19 02:51:42;;;;;;;;;;;;;;;25.88;34.76;95406.94;4943027;28;7290;-60
2023/12/19 02:54:27;;;;;;;;;;;;;;;25.87;34.12;95393.66;4958027;28;8890;-60
2023/12/19 02:56:53;;;;;;;;;;;;;;;25.87;34.50;95380.63;4975282;28;7224;-60
2023/12/19 02:59:22;;;;;;;;;;;;;;;25.83;34.46;95377.34;4970391;28;7409;-60
2023/12/19 03:01:50;;;;;;;;;;;;;;;25.84;34.91;95380.84;4956173;28;9121;-60
2023/12/19 03:04:16;;;;;;;;;;;;;;;25.84;34.94;95378.09;4955494;28;7186;-60
2023/12/19 03:06:46;;;;;;;;;;;;;;;25.84;34.78;95376.09;4950267;28;9105;-60
2023/12/19 03:09:12;;;;;;;;;;;;;;;25.81;34.56;95368.06;4962010;28;7216;-60
2023/12/19 03:11:40;;;;;;;;;;;;;;;25.81;34.72;95366.06;4973200;28;6999;-59
2023/12/19 03:14:19;;;;;;;;;;;;;;;25.80;34.25;95361.03;4955355;28;6989;-60
2023/12/19 03:16:59;;;;;;;;;;;;;;;25.80;34.83;95359.03;4954333;28;7604;-62
2023/12/19 03:19:25;;;;;;;;;;;;;;;25.77;34.80;95353.75;4973421;28;7009;-62
2023/12/19 03:21:52;;;;;;;;;;;;;;;25.76;34.83;95357.75;4986843;28;9376;-62
2023/12/19 03:24:22;;;;;;;;;;;;;;;25.78;34.54;95364.28;5032804;28;7039;-62
2023/12/19 03:26:58;;;;;;;;;;;;;;;25.81;34.64;95373.56;5024869;28;9090;-62
2023/12/19 03:29:32;;;;;;;;;;;;;;;25.84;34.44;95372.56;5033007;28;8779;-62
2023/12/19 03:31:59;;;;;;;;;;;;;;;25.79;34.54;95387.09;5034447;28;6996;-62
2023/12/19 03:34:45;;;;;;;;;;;;;;;25.76;34.75;95382.53;5030510;28;7609;-62
2023/12/19 03:37:11;;;;;;;;;;;;;;;25.75;34.51;95381.78;5019423;28;7068;-62
2023/12/19 03:39:53;;;;;;;;;;;;;;;25.75;34.63;95375.53;5032983;28;7049;-62
2023/12/19 03:42:54;;;;;;;;;;;;;;;25.72;35.29;95374.50;5024241;28;8459;-62
2023/12/19 03:45:49;;;;;;;;;;;;;;;25.73;35.24;95361.50;4975392;28;8154;-62
2023/12/19 03:48:19;;;;;;;;;;;;;;;25.68;34.59;95338.16;4956007;28;7210;-62
2023/12/19 03:50:45;;;;;;;;;;;;;;;25.68;34.92;95345.66;4953786;28;7102;-62
2023/12/19 03:53:11;;;;;;;;;;;;;;;25.66;34.75;95348.91;4935631;28;7397;-62
2023/12/19 03:55:37;;;;;;;;;;;;;;;25.66;35.04;95346.16;4933671;28;9047;-62
2023/12/19 03:58:03;;;;;;;;;;;;;;;25.66;35.08;95350.91;4948867;28;7140;-62
2023/12/19 04:00:31;;;;;;;;;;;;;;;25.63;34.93;95352.63;4936529;28;7201;-63
2023/12/19 04:03:02;;;;;;;;;;;;;;;25.63;34.81;95341.59;4939870;28;9458;-62
2023/12/19 04:05:28;;;;;;;;;;;;;;;25.66;34.89;95339.88;4952556;28;9461;-63
2023/12/19 04:08:25;;;;;;;;;;;;;;;25.67;34.86;95322.84;4938770;28;9211;-62
2023/12/19 04:10:55;;;;;;;;;;;;;;;25.68;35.38;95329.13;4902233;29;9095;-62
2023/12/19 04:13:21;;;;;;;;;;;;;;;25.65;35.00;95319.06;4881296;29;7142;-63
2023/12/19 04:15:47;;;;;;;;;;;;;;;25.65;34.63;95328.09;4901423;29;9313;-63
2023/12/19 04:18:14;;;;;;;;;;;;;;;25.62;34.48;95318.03;4898441;29;7259;-62
2023/12/19 04:20:47;;;;;;;;;;;;;;;25.64;34.57;95320.34;4888063;28;9618;-63
2023/12/19 04:23:13;;;;;;;;;;;;;;;25.64;35.28;95318.34;4922732;28;9203;-63
2023/12/19 04:25:48;;;;;;;;;;;;;;;25.64;35.08;95315.59;4933307;28;8889;-60
2023/12/19 04:28:15;;;;;;;;;;;;;;;25.62;35.06;95309.78;4947819;28;7076;-60
2023/12/19 04:30:42;;;;;;;;;;;;;;;25.64;34.64;95298.28;4937077;28;8080;-60
2023/12/19 04:33:27;;;;;;;;;;;;;;;25.63;34.59;95302.28;4948286;28;7347;-60
2023/12/19 04:35:54;;;;;;;;;;;;;;;25.64;35.14;95312.06;4946036;28;7544;-60
2023/12/19 04:38:20;;;;;;;;;;;;;;;25.62;34.88;95312.53;4962156;28;6989;-60
2023/12/19 04:40:51;;;;;;;;;;;;;;;25.62;34.70;95315.28;4935790;28;7289;-60
2023/12/19 04:43:19;;;;;;;;;;;;;;;25.62;35.42;95312.53;4950682;28;7192;-60
2023/12/19 04:45:48;;;;;;;;;;;;;;;25.63;35.10;95311.31;4959584;28;7337;-60
2023/12/19 04:48:14;;;;;;;;;;;;;;;25.62;34.99;95309.78;5015497;28;7267;-60
2023/12/19 04:50:44;;;;;;;;;;;;;;;25.60;35.10;95298.50;5039665;28;7141;-60
2023/12/19 04:53:13;;;;;;;;;;;;;;;25.58;35.44;95292.00;5026271;28;8410;-61
2023/12/19 04:55:40;;;;;;;;;;;;;;;25.60;34.95;95298.50;5018104;28;7001;-59
2023/12/19 04:58:14;;;;;;;;;;;;;;;25.60;34.45;95297.75;5011888;28;7221;-60
2023/12/19 05:00:42;;;;;;;;;;;;;;;25.58;34.97;95289.97;5020527;28;7521;-60
2023/12/19 05:03:10;;;;;;;;;;;;;;;25.59;35.07;95296.25;5027610;28;7582;-60
2023/12/19 05:05:40;;;;;;;;;;;;;;;25.56;35.06;95299.97;5020045;28;7078;-60
2023/12/19 05:08:15;;;;;;;;;;;;;;;25.60;34.73;95298.50;5013109;28;6989;-59
2023/12/19 05:10:42;;;;;;;;;;;;;;;25.56;35.38;95297.97;5021328;28;7284;-59
2023/12/19 05:13:11;;;;;;;;;;;;;;;25.59;35.13;95308.03;5016269;28;7193;-59
2023/12/19 05:16:13;;;;;;;;;;;;;;;25.59;35.52;95312.75;5022799;28;6947;-59
2023/12/19 05:18:42;;;;;;;;;;;;;;;25.58;35.15;95316.78;4992487;28;7382;-59
2023/12/19 05:21:13;;;;;;;;;;;;;;;25.58;35.44;95320.25;4991739;28;6986;-59
2023/12/19 05:23:41;;;;;;;;;;;;;;;25.60;35.15;95319.81;4992405;28;9039;-59
2023/12/19 05:26:08;;;;;;;;;;;;;;;25.65;35.16;95317.06;5007394;28;9113;-60
2023/12/19 05:28:38;;;;;;;;;;;;;;;25.63;34.72;95327.84;4990028;28;7519;-59
2023/12/19 05:31:07;;;;;;;;;;;;;;;25.65;34.65;95339.13;5002039;28;7204;-60
2023/12/19 05:33:34;;;;;;;;;;;;;;;25.66;35.06;95324.13;4984728;28;9543;-60
2023/12/19 05:36:15;;;;;;;;;;;;;;;25.70;34.70;95323.88;5007712;28;9527;-60
2023/12/19 05:38:52;;;;;;;;;;;;;;;25.68;35.47;95323.63;5010635;28;9360;-60
2023/12/19 05:41:28;;;;;;;;;;;;;;;25.73;34.60;95323.66;4993046;28;7235;-60
2023/12/19 05:43:59;;;;;;;;;;;;;;;25.74;34.77;95324.41;5007207;28;7156;-61
2023/12/19 05:46:28;;;;;;;;;;;;;;;25.73;35.33;95311.88;5001770;28;7152;-61
2023/12/19 05:48:55;;;;;;;;;;;;;;;25.70;35.22;95313.63;5009036;28;7194;-61
2023/12/19 05:51:20;;;;;;;;;;;;;;;25.69;35.15;95309.34;5008874;28;7201;-59
2023/12/19 05:53:46;;;;;;;;;;;;;;;25.73;34.72;95311.88;4988065;28;7275;-60
2023/12/19 05:56:16;;;;;;;;;;;;;;;25.75;34.83;95307.38;5021495;28;9113;-60
2023/12/19 05:58:44;;;;;;;;;;;;;;;25.71;34.91;95295.09;5024353;28;7301;-60
2023/12/19 06:01:10;;;;;;;;;;;;;;;25.76;35.28;95300.63;5028502;28;8019;-61
2023/12/19 06:03:36;;;;;;;;;;;;;;;25.78;35.16;95303.66;5025292;28;9619;-60
2023/12/19 06:06:05;;;;;;;;;;;;;;;25.81;35.58;95310.19;5027991;28;7278;-60
2023/12/19 06:08:44;;;;;;;;;;;;;;;25.81;35.41;95302.69;5018577;28;7202;-60
2023/12/19 06:11:25;;;;;;;;;;;;;;;25.79;34.88;95307.94;5027089;28;7194;-61
2023/12/19 06:13:54;;;;;;;;;;;;;;;25.82;35.45;95303.41;5026834;28;7504;-60
2023/12/19 06:16:21;;;;;;;;;;;;;;;25.80;35.66;95311.41;5019008;28;7225;-60
2023/12/19 06:18:58;;;;;;;;;;;;;;;25.83;35.16;95315.97;5029583;28;7573;-59
2023/12/19 06:21:30;;;;;;;;;;;;;;;25.83;35.39;95313.22;5032391;28;7459;-60
2023/12/19 06:23:58;;;;;;;;;;;;;;;25.87;35.40;95320.00;5031723;28;7135;-60
2023/12/19 06:26:24;;;;;;;;;;;;;;;25.87;35.31;95314.50;5026041;28;7200;-61
2023/12/19 06:29:00;;;;;;;;;;;;;;;25.88;35.21;95320.75;5019029;28;8447;-60
2023/12/19 06:31:28;;;;;;;;;;;;;;;25.86;35.79;95318.47;5022600;28;9111;-60
2023/12/19 06:33:54;;;;;;;;;;;;;;;25.84;35.52;95312.72;5008768;28;9220;-60
2023/12/19 06:36:28;;;;;;;;;;;;;;;25.82;34.81;95319.94;5018550;28;7196;-60
2023/12/19 06:38:56;;;;;;;;;;;;;;;25.79;35.47;95316.19;5017079;28;7649;-61
2023/12/19 06:41:22;;;;;;;;;;;;;;;25.79;35.61;95313.44;5025765;28;7726;-61
2023/12/19 06:43:51;;;;;;;;;;;;;;;25.81;34.63;95310.94;5028682;28;7054;-60
2023/12/19 06:46:17;;;;;;;;;;;;;;;25.82;34.94;95309.69;5016379;28;7016;-54
2023/12/19 06:48:46;;;;;;;;;;;;;;;25.83;35.10;95310.44;5022827;28;7521;-55
2023/12/19 06:51:26;;;;;;;;;;;;;;;25.81;35.27;95299.16;5018474;28;7253;-55
2023/12/19 06:53:55;;;;;;;;;;;;;;;25.83;34.43;95305.69;5033541;28;7471;-54
2023/12/19 06:56:26;;;;;;;;;;;;;;;25.80;34.39;95303.16;5021946;28;7136;-55
2023/12/19 06:58:54;;;;;;;;;;;;;;;25.82;34.98;95298.66;5023790;28;6997;-55
2023/12/19 07:01:20;;;;;;;;;;;;;;;25.82;34.63;95298.66;5022208;28;7000;-54
2023/12/19 07:03:48;;;;;;;;;;;;;;;25.82;34.92;95293.16;5007022;28;7275;-55
2023/12/19 07:06:14;;;;;;;;;;;;;;;25.83;35.22;95300.19;5017219;28;9013;-55
2023/12/19 07:08:47;;;;;;;;;;;;;;;25.80;35.04;95292.88;5027365;28;7109;-54
2023/12/19 07:11:21;;;;;;;;;;;;;;;25.79;34.53;95288.63;5023768;28;7248;-55
2023/12/19 07:13:53;;;;;;;;;;;;;;;25.79;34.87;95293.38;5015691;28;9729;-55
2023/12/19 07:16:25;;;;;;;;;;;;;;;25.79;35.27;95285.88;5018679;28;7189;-55
2023/12/19 07:18:51;;;;;;;;;;;;;;;25.72;35.13;95286.31;5018834;28;7246;-55
2023/12/19 07:21:24;;;;;;;;;;;;;;;25.77;34.81;95293.88;5034875;28;8569;-55
2023/12/19 07:23:53;;;;;;;;;;;;;;;25.79;34.64;95294.16;5016384;28;8261;-55
2023/12/19 07:26:26;;;;;;;;;;;;;;;25.81;35.32;95285.38;5033799;28;7328;-55
2023/12/19 07:28:57;;;;;;;;;;;;;;;25.79;35.10;95283.13;5022681;28;7060;-54
2023/12/19 07:31:30;;;;;;;;;;;;;;;25.81;35.51;95290.91;5028517;28;7185;-54
2023/12/19 07:33:58;;;;;;;;;;;;;;;25.85;35.40;95288.66;5022363;28;7169;-55
2023/12/19 07:36:33;;;;;;;;;;;;;;;25.83;35.79;95280.91;5024960;28;9386;-55
2023/12/19 07:39:01;;;;;;;;;;;;;;;25.86;35.45;95277.13;5018158;28;7200;-55
2023/12/19 07:41:28;;;;;;;;;;;;;;;25.87;35.40;95275.16;5022923;28;7126;-55
2023/12/19 07:43:58;;;;;;;;;;;;;;;25.90;34.64;95276.94;5026941;28;7061;-55
2023/12/19 07:46:26;;;;;;;;;;;;;;;25.89;35.37;95265.16;5040128;28;9592;-54
2023/12/19 07:48:54;;;;;;;;;;;;;;;25.86;35.13;95259.88;5020803;28;7054;-55
2023/12/19 07:51:24;;;;;;;;;;;;;;;25.86;35.04;95260.59;5017148;28;8748;-55
2023/12/19 07:53:57;;;;;;;;;;;;;;;25.88;35.70;95258.09;5016298;28;7291;-55
2023/12/19 07:56:23;;;;;;;;;;;;;;;25.89;35.44;95256.88;5027337;28;7258;-60
2023/12/19 07:58:54;;;;;;;;;;;;;;;25.86;35.92;95244.06;5037682;28;7469;-60
2023/12/19 08:01:29;;;;;;;;;;;;;;;25.87;35.23;95234.56;5039617;28;7206;-61
2023/12/19 08:03:55;;;;;;;;;;;;;;;25.88;35.22;95233.31;5022131;28;7326;-60
2023/12/19 08:06:21;;;;;;;;;;;;;;;25.90;35.10;95233.56;5019845;28;7133;-61
2023/12/19 08:08:53;;;;;;;;;;;;;;;25.91;35.65;95228.81;5027425;28;9416;-61
2023/12/19 08:11:27;;;;;;;;;;;;;;;25.90;35.22;95210.78;5029991;28;7178;-61
2023/12/19 08:14:02;;;;;;;;;;;;;;;25.89;35.99;95199.00;5019563;28;7285;-61
2023/12/19 08:16:39;;;;;;;;;;;;;;;25.92;35.09;95197.25;5030891;28;6964;-61
2023/12/19 08:19:13;;;;;;;;;;;;;;;25.92;35.17;95189.75;5037265;28;9090;-61
2023/12/19 08:22:06;;;;;;;;;;;;;;;25.92;35.83;95192.50;5024968;28;7201;-60
2023/12/19 08:24:37;;;;;;;;;;;;;;;25.92;35.76;95186.25;5045789;28;7453;-60
2023/12/19 08:27:05;;;;;;;;;;;;;;;25.94;35.09;95189.25;5016612;28;8802;-61
2023/12/19 08:29:43;;;;;;;;;;;;;;;25.94;35.33;95189.25;5024623;28;7232;-61
2023/12/19 08:32:20;;;;;;;;;;;;;;;25.94;35.00;95189.25;5018738;28;7076;-61
2023/12/19 08:34:46;;;;;;;;;;;;;;;25.94;35.14;95192.00;5018186;28;7247;-61
2023/12/19 08:37:12;;;;;;;;;;;;;;;25.93;34.79;95188.50;5029032;28;9716;-61
2023/12/19 08:39:38;;;;;;;;;;;;;;;25.93;35.08;95194.00;5027804;28;6860;-61
2023/12/19 08:42:23;;;;;;;;;;;;;;;25.96;34.85;95187.50;5027789;28;6947;-61
2023/12/19 08:44:52;;;;;;;;;;;;;;;25.95;35.73;95180.47;5015478;28;8739;-61
2023/12/19 08:47:19;;;;;;;;;;;;;;;25.95;34.88;95177.72;5027404;28;7070;-61
2023/12/19 08:49:46;;;;;;;;;;;;;;;25.96;34.73;95179.25;5030290;28;9619;-61
2023/12/19 08:52:12;;;;;;;;;;;;;;;25.96;35.39;95182.00;5021515;28;7328;-61
2023/12/19 08:54:40;;;;;;;;;;;;;;;25.92;35.27;95169.69;5028235;28;7060;-61
2023/12/19 08:57:15;;;;;;;;;;;;;;;25.95;34.92;95174.22;5031311;28;9035;-61
2023/12/19 08:59:42;;;;;;;;;;;;;;;25.97;35.56;95177.97;5020204;28;7261;-61
2023/12/19 09:02:08;;;;;;;;;;;;;;;25.97;35.09;95189.00;5026836;28;7400;-61
2023/12/19 09:04:36;;;;;;;;;;;;;;;25.98;35.53;95189.75;5027501;28;9457;-61
2023/12/19 09:07:03;;;;;;;;;;;;;;;25.96;35.57;95192.25;5030168;28;7505;-59
2023/12/19 09:09:34;;;;;;;;;;;;;;;26.00;35.81;95192.78;5020521;28;7688;-60
2023/12/19 09:12:06;;;;;;;;;;;;;;;26.01;35.27;95183.28;5020226;28;7230;-59
2023/12/19 09:14:33;;;;;;;;;;;;;;;25.99;35.60;95174.75;5027245;28;6996;-60
2023/12/19 09:17:11;;;;;;;;;;;;;;;25.97;35.30;95172.47;5022790;28;9579;-60
2023/12/19 09:19:45;;;;;;;;;;;;;;;25.99;35.21;95172.00;5028342;28;6998;-61
2023/12/19 09:22:20;;;;;;;;;;;;;;;25.98;35.01;95170.47;5024788;28;8263;-60
2023/12/19 09:24:59;;;;;;;;;;;;;;;25.96;34.99;95170.97;5021752;28;9560;-60
2023/12/19 09:27:25;;;;;;;;;;;;;;;25.95;35.38;95176.97;5036852;28;7266;-60
2023/12/19 09:30:07;;;;;;;;;;;;;;;25.96;35.79;95173.72;5017866;28;7042;-59
2023/12/19 09:32:33;;;;;;;;;;;;;;;25.96;35.30;95175.72;5027362;28;7257;-60
2023/12/19 09:35:01;;;;;;;;;;;;;;;25.94;35.49;95175.47;5029389;28;7273;-59
2023/12/19 09:37:28;;;;;;;;;;;;;;;25.95;35.31;95186.00;5018849;28;7913;-60
2023/12/19 09:40:02;;;;;;;;;;;;;;;25.96;35.60;95181.25;5033733;28;7449;-59
2023/12/19 09:42:31;;;;;;;;;;;;;;;25.96;35.26;95184.75;5025743;28;9016;-60
2023/12/19 09:45:00;;;;;;;;;;;;;;;25.97;34.87;95180.75;5026244;28;7651;-60
2023/12/19 09:47:39;;;;;;;;;;;;;;;25.97;35.41;95189.00;5028679;28;7922;-61
2023/12/19 09:50:26;;;;;;;;;;;;;;;25.97;35.06;95189.00;5026070;28;9291;-60
2023/12/19 09:53:07;;;;;;;;;;;;;;;26.01;35.51;95183.28;5019022;28;7316;-60
2023/12/19 09:55:42;;;;;;;;;;;;;;;25.98;34.99;95182.25;5027506;28;8285;-60
2023/12/19 09:58:22;;;;;;;;;;;;;;;26.00;35.56;95192.78;5036092;28;7259;-60
2023/12/19 10:01:00;;;;;;;;;;;;;;;26.00;35.07;95184.50;5038719;28;7264;-60
2023/12/19 10:03:31;;;;;;;;;;;;;;;25.99;34.77;95194.78;5021525;28;7293;-60
2023/12/19 10:06:00;;;;;;;;;;;;;;;25.99;34.78;95197.53;5021507;28;9139;-60
2023/12/19 10:08:30;;;;;;;;;;;;;;;25.96;35.11;95193.03;5021805;28;7361;-60
2023/12/19 10:11:03;;;;;;;;;;;;;;;25.98;35.32;95198.03;5029031;28;7209;-60
2023/12/19 10:13:30;;;;;;;;;;;;;;;26.00;35.42;95193.53;5024619;28;9118;-60
2023/12/19 10:16:00;;;;;;;;;;;;;;;26.01;35.31;95199.81;5013931;28;9127;-63
2023/12/19 10:18:38;;;;;;;;;;;;;;;26.01;35.45;95186.75;5013202;28;7199;-63
2023/12/19 10:21:13;;;;;;;;;;;;;;;25.99;34.91;95189.25;5020721;28;7784;-63
2023/12/19 10:23:40;;;;;;;;;;;;;;;25.99;35.28;95194.78;5019812;28;7345;-63
2023/12/19 10:26:10;;;;;;;;;;;;;;;26.00;35.67;95179.00;5025044;28;7102;-63
2023/12/19 10:29:21;;;;;;;;;;;;;;;26.02;35.12;95174.50;5029191;28;7278;-63
2023/12/19 10:31:56;;;;;;;;;;;;;;;26.03;35.46;95164.97;4970315;28;7057;-62
2023/12/19 10:34:57;;;;;;;;;;;;;;;26.03;34.96;95158.72;4970711;28;7682;-62
2023/12/19 10:37:27;;;;;;;;;;;;;;;26.05;35.26;95156.97;4879737;29;7607;-63
2023/12/19 10:40:10;;;;;;;;;;;;;;;26.05;35.06;95145.19;4884987;29;7270;-63
2023/12/19 10:42:40;;;;;;;;;;;;;;;26.07;35.33;95143.47;4869057;29;7256;-63
2023/12/19 10:45:25;;;;;;;;;;;;;;;26.07;35.40;95143.47;4878231;29;7239;-63
2023/12/19 10:47:51;;;;;;;;;;;;;;;26.09;35.01;95138.22;4898876;29;6909;-63
2023/12/19 10:50:40;;;;;;;;;;;;;;;26.10;35.34;95130.69;4895125;29;6991;-62
2023/12/19 10:53:09;;;;;;;;;;;;;;;26.10;34.99;95111.38;4880416;29;7946;-63
2023/12/19 10:55:47;;;;;;;;;;;;;;;26.11;35.13;95102.63;4878287;29;7444;-63
2023/12/19 10:58:20;;;;;;;;;;;;;;;26.14;35.31;95098.88;4884988;29;6979;-63
2023/12/19 11:00:51;;;;;;;;;;;;;;;26.13;35.16;95083.59;4888128;29;7643;-63
2023/12/19 11:03:23;;;;;;;;;;;;;;;26.15;35.06;95075.56;4874962;29;8908;-63
2023/12/19 11:05:54;;;;;;;;;;;;;;;26.14;35.73;95076.81;4878077;29;7709;-64
2023/12/19 11:08:22;;;;;;;;;;;;;;;26.17;35.00;95064.78;4911451;28;7008;-64
2023/12/19 11:11:28;;;;;;;;;;;;;;;26.16;34.78;95062.53;4946458;28;9118;-64
2023/12/19 11:14:07;;;;;;;;;;;;;;;26.15;35.27;95045.25;4991814;28;9040;-62
2023/12/19 11:16:49;;;;;;;;;;;;;;;26.17;35.36;95039.97;5025773;28;7441;-63
2023/12/19 11:19:44;;;;;;;;;;;;;;;26.19;35.43;95022.94;5032795;28;8921;-63
2023/12/19 11:22:25;;;;;;;;;;;;;;;26.22;34.71;95026.69;5022688;28;7242;-63
2023/12/19 11:25:29;;;;;;;;;;;;;;;26.23;34.81;95028.22;5021727;28;8862;-63
2023/12/19 11:28:02;;;;;;;;;;;;;;;26.25;35.51;95017.44;5041113;28;9587;-60
2023/12/19 11:30:32;;;;;;;;;;;;;;;26.27;35.40;95003.91;5020904;28;7184;-61
2023/12/19 11:32:59;;;;;;;;;;;;;;;26.27;34.86;94995.63;5023182;28;7228;-60
2023/12/19 11:35:29;;;;;;;;;;;;;;;26.23;34.89;94989.63;5023040;28;8802;-61
2023/12/19 11:38:17;;;;;;;;;;;;;;;26.22;35.80;94988.09;5032368;28;8253;-60
2023/12/19 11:40:56;;;;;;;;;;;;;;;26.21;35.34;94997.63;5021548;28;7202;-61
2023/12/19 11:43:28;;;;;;;;;;;;;;;26.20;35.46;94982.34;5021636;28;9214;-60
2023/12/19 11:46:07;;;;;;;;;;;;;;;26.21;35.19;94981.09;5022908;28;8514;-60
2023/12/19 11:48:44;;;;;;;;;;;;;;;26.25;35.83;94973.31;5026087;28;7251;-61
2023/12/19 11:51:12;;;;;;;;;;;;;;;26.25;35.99;94954.00;5023790;28;7383;-61
2023/12/19 11:53:39;;;;;;;;;;;;;;;26.24;35.94;94944.22;5022181;28;10555;-60
2023/12/19 11:56:08;;;;;;;;;;;;;;;26.25;35.86;94948.50;5017121;28;7455;-61
2023/12/19 11:58:44;;;;;;;;;;;;;;;26.27;36.20;94935.72;5018814;28;7533;-60
2023/12/19 12:01:13;;;;;;;;;;;;;;;26.30;35.92;94931.19;5022272;28;7486;-60
2023/12/19 12:03:39;;;;;;;;;;;;;;;26.29;36.15;94937.97;5005621;28;9363;-60
2023/12/19 12:06:08;;;;;;;;;;;;;;;26.30;35.92;94933.94;5022111;28;8524;-60
2023/12/19 12:08:34;;;;;;;;;;;;;;;26.37;35.93;94936.19;5029214;28;7659;-60
2023/12/19 12:11:05;;;;;;;;;;;;;;;26.38;35.59;94926.69;5021925;28;8711;-60
2023/12/19 12:13:36;;;;;;;;;;;;;;;26.42;35.76;94935.44;5018861;28;7064;-60
2023/12/19 12:16:07;;;;;;;;;;;;;;;26.38;35.09;94923.91;5022022;28;7263;-60
2023/12/19 12:18:33;;;;;;;;;;;;;;;26.37;35.28;94925.91;5024408;28;7873;-61
2023/12/19 12:21:09;;;;;;;;;;;;;;;26.39;35.41;94920.66;5030222;28;9266;-61
2023/12/19 12:23:42;;;;;;;;;;;;;;;26.44;35.93;94925.41;5023689;28;7059;-60
2023/12/19 12:26:19;;;;;;;;;;;;;;;26.44;35.30;94924.66;5016483;28;8288;-60
2023/12/19 12:28:50;;;;;;;;;;;;;;;26.45;36.00;94912.34;5018195;28;9168;-60
2023/12/19 12:31:19;;;;;;;;;;;;;;;26.46;35.71;94919.38;5026423;28;7263;-60
2023/12/19 12:33:46;;;;;;;;;;;;;;;26.48;35.73;94916.88;5038975;28;9100;-61
2023/12/19 12:36:12;;;;;;;;;;;;;;;26.55;35.81;94910.84;5031649;28;9293;-59
2023/12/19 12:38:39;;;;;;;;;;;;;;;26.60;35.86;94921.13;5030207;28;7048;-59
2023/12/19 12:41:13;;;;;;;;;;;;;;;26.60;35.93;94919.09;5025680;28;7849;-59
2023/12/19 12:43:49;;;;;;;;;;;;;;;26.64;35.53;94913.34;5022394;28;7228;-60
2023/12/19 12:46:21;;;;;;;;;;;;;;;26.65;35.41;94910.06;5014436;28;9389;-59
2023/12/19 12:48:54;;;;;;;;;;;;;;;26.70;35.47;94916.84;5039261;28;7192;-60
2023/12/19 12:51:23;;;;;;;;;;;;;;;26.71;35.71;94910.06;5037928;28;7307;-59
2023/12/19 12:54:00;;;;;;;;;;;;;;;26.76;35.47;94912.09;5019417;28;6995;-59
2023/12/19 12:56:33;;;;;;;;;;;;;;;26.80;35.66;94918.09;5015893;28;9047;-59
2023/12/19 12:59:09;;;;;;;;;;;;;;;26.84;35.41;94913.06;5020371;28;7264;-59
2023/12/19 13:01:49;;;;;;;;;;;;;;;26.86;34.87;94907.81;5014397;28;6993;-59
2023/12/19 13:04:18;;;;;;;;;;;;;;;26.87;33.42;94907.28;5037403;28;8840;-60
2023/12/19 13:06:45;;;;;;;;;;;;;;;26.87;33.12;94903.78;5033999;28;9223;-59
2023/12/19 13:09:14;;;;;;;;;;;;;;;26.84;32.45;94896.50;5031312;28;9074;-59
2023/12/19 13:11:47;;;;;;;;;;;;;;;26.86;33.33;94894.00;5015838;28;7193;-59
2023/12/19 13:14:14;;;;;;;;;;;;;;;26.91;33.14;94901.50;5018290;28;9139;-60
2023/12/19 13:16:42;;;;;;;;;;;;;;;26.92;33.43;94893.97;5021806;28;6864;-59
2023/12/19 13:19:14;;;;;;;;;;;;;;;26.94;33.24;94877.66;5032118;28;10266;-59
2023/12/19 13:21:40;;;;;;;;;;;;;;;26.95;33.00;94870.88;5021243;28;7214;-59
2023/12/19 13:24:07;;;;;;;;;;;;;;;26.96;33.25;94862.09;5013989;28;7203;-60
2023/12/19 13:26:33;;;;;;;;;;;;;;;26.98;32.55;94867.84;5008401;28;7071;-59